Time;durP1;ratioP1;P1;durP2;ratioP2;P2;SDS_P1;SDS_P2;PMS_P1;PMS_P2;Temp;Humidity;BMP_temperature;BMP_pressure;BME280_temperature;BME280_humidity;BME280_pressure;Samples;Min_cycle;Max_cycle;Signal;HPM_P1;HPM_P2
2022/02/20 00:00:22;;;;;;;5.93;1.20;;;;;;;;;;5013185;28;20037;-81
2022/02/20 00:02:49;;;;;;;6.30;1.15;;;;;;;;;;5018768;28;20037;-81
2022/02/20 00:05:15;;;;;;;3.25;1.00;;;;;;;;;;5047714;28;20496;-81
2022/02/20 00:07:40;;;;;;;5.38;1.05;;;;;;;;;;5013129;28;20052;-81
2022/02/20 00:10:06;;;;;;;3.65;1.17;;;;;;;;;;5029773;28;20148;-81
2022/02/20 00:12:32;;;;;;;2.83;0.82;;;;;;;;;;5013180;28;20139;-81
2022/02/20 00:14:58;;;;;;;2.92;1.50;;;;;;;;;;5030656;28;20045;-81
2022/02/20 00:17:23;;;;;;;6.55;1.10;;;;;;;;;;5030082;28;20041;-81
2022/02/20 00:19:50;;;;;;;2.28;1.10;;;;;;;;;;5030738;28;20033;-81
2022/02/20 00:22:16;;;;;;;7.57;1.23;;;;;;;;;;5030453;28;20045;-81
2022/02/20 00:24:42;;;;;;;2.53;1.02;;;;;;;;;;5013531;28;20431;-81
2022/02/20 00:27:08;;;;;;;5.00;1.45;;;;;;;;;;5013696;28;20490;-81
2022/02/20 00:29:34;;;;;;;4.55;1.00;;;;;;;;;;5013045;28;20124;-81
2022/02/20 00:31:59;;;;;;;4.68;0.95;;;;;;;;;;5029212;28;20037;-81
2022/02/20 00:34:25;;;;;;;6.63;1.35;;;;;;;;;;5029131;28;20037;-81
2022/02/20 00:36:51;;;;;;;6.07;1.10;;;;;;;;;;5028469;28;20377;-81
2022/02/20 00:39:16;;;;;;;9.63;1.67;;;;;;;;;;5029580;28;20033;-81
2022/02/20 00:41:42;;;;;;;7.13;1.60;;;;;;;;;;5029262;28;20041;-81
2022/02/20 00:44:08;;;;;;;4.88;0.95;;;;;;;;;;5030042;28;20452;-81
2022/02/20 00:46:34;;;;;;;6.68;1.30;;;;;;;;;;5014006;28;20041;-81
2022/02/20 00:48:59;;;;;;;6.63;1.00;;;;;;;;;;5013724;28;20127;-81
2022/02/20 00:51:25;;;;;;;2.63;1.02;;;;;;;;;;5030848;28;20407;-82
2022/02/20 00:53:51;;;;;;;3.83;1.42;;;;;;;;;;5029919;28;20434;-81
2022/02/20 00:56:17;;;;;;;6.03;1.30;;;;;;;;;;5047745;28;20044;-81
2022/02/20 00:58:42;;;;;;;5.53;1.90;;;;;;;;;;5029243;28;20333;-81
2022/02/20 01:01:08;;;;;;;4.57;1.15;;;;;;;;;;5030857;28;20049;-81
2022/02/20 01:03:34;;;;;;;4.82;1.45;;;;;;;;;;5015735;28;20198;-81
2022/02/20 01:05:59;;;;;;;4.20;1.27;;;;;;;;;;5030377;28;20068;-81
2022/02/20 01:08:25;;;;;;;7.05;1.33;;;;;;;;;;5030333;28;20067;-81
2022/02/20 01:10:51;;;;;;;6.38;1.92;;;;;;;;;;5029599;28;20037;-81
2022/02/20 01:13:17;;;;;;;4.57;1.10;;;;;;;;;;5015198;28;20041;-81
2022/02/20 01:15:42;;;;;;;4.15;1.55;;;;;;;;;;5031267;28;20040;-81
2022/02/20 01:18:08;;;;;;;3.13;1.33;;;;;;;;;;5029508;28;20064;-81
2022/02/20 01:20:34;;;;;;;9.60;2.00;;;;;;;;;;5030131;28;20091;-81
2022/02/20 01:23:00;;;;;;;5.10;1.55;;;;;;;;;;5030780;28;20296;-81
2022/02/20 01:25:25;;;;;;;3.40;1.70;;;;;;;;;;5030462;28;20033;-81
2022/02/20 01:27:51;;;;;;;4.53;1.65;;;;;;;;;;5032241;28;20041;-81
2022/02/20 01:30:17;;;;;;;8.27;1.40;;;;;;;;;;5030286;28;20041;-81
2022/02/20 01:32:42;;;;;;;5.07;1.63;;;;;;;;;;5047700;28;20110;-81
2022/02/20 01:35:09;;;;;;;4.85;1.55;;;;;;;;;;5015895;28;20040;-81
2022/02/20 01:37:35;;;;;;;3.03;1.42;;;;;;;;;;5030186;28;20053;-81
2022/02/20 01:40:01;;;;;;;5.55;1.73;;;;;;;;;;5030774;28;20097;-81
2022/02/20 01:42:27;;;;;;;6.05;2.00;;;;;;;;;;5029265;28;20040;-81
2022/02/20 01:44:52;;;;;;;4.25;1.83;;;;;;;;;;5029391;28;20521;-81
2022/02/20 01:47:18;;;;;;;6.50;1.83;;;;;;;;;;5030256;28;20041;-81
2022/02/20 01:49:44;;;;;;;5.28;1.58;;;;;;;;;;5014691;28;20071;-81
2022/02/20 01:52:11;;;;;;;5.88;1.80;;;;;;;;;;5032524;28;20047;-80
2022/02/20 01:54:36;;;;;;;11.18;2.88;;;;;;;;;;5013644;28;20033;-80
2022/02/20 01:57:03;;;;;;;5.97;2.40;;;;;;;;;;5013673;28;20140;-80
2022/02/20 01:59:29;;;;;;;10.30;2.35;;;;;;;;;;5014200;28;20025;-80
2022/02/20 02:01:56;;;;;;;4.43;2.35;;;;;;;;;;5030547;28;20413;-80
2022/02/20 02:04:24;;;;;;;7.10;2.22;;;;;;;;;;5013870;28;20048;-80
2022/02/20 02:06:50;;;;;;;7.90;2.05;;;;;;;;;;5014096;28;20112;-80
2022/02/20 02:09:17;;;;;;;4.18;2.20;;;;;;;;;;5013363;28;20033;-80
2022/02/20 02:11:44;;;;;;;9.25;2.63;;;;;;;;;;5030686;28;20041;-80
2022/02/20 02:14:10;;;;;;;6.03;1.77;;;;;;;;;;5013321;28;20033;-81
2022/02/20 02:16:36;;;;;;;2.13;1.90;;;;;;;;;;5030087;28;20563;-81
2022/02/20 02:19:03;;;;;;;3.72;2.05;;;;;;;;;;5030138;28;20518;-81
2022/02/20 02:21:28;;;;;;;3.20;2.30;;;;;;;;;;5033089;28;20040;-81
2022/02/20 02:23:54;;;;;;;5.03;2.90;;;;;;;;;;5034700;28;20152;-81
2022/02/20 02:26:20;;;;;;;10.18;3.30;;;;;;;;;;5033943;28;20045;-81
2022/02/20 02:28:46;;;;;;;6.75;3.80;;;;;;;;;;5032979;28;20041;-80
2022/02/20 02:31:12;;;;;;;4.57;3.38;;;;;;;;;;5018112;28;20106;-80
2022/02/20 02:33:39;;;;;;;3.75;2.65;;;;;;;;;;5015967;28;20090;-80
2022/02/20 02:36:07;;;;;;;6.65;3.13;;;;;;;;;;5033271;28;20033;-81
2022/02/20 02:38:33;;;;;;;3.20;2.90;;;;;;;;;;5032956;28;20120;-81
2022/02/20 02:41:04;;;;;;;5.45;2.75;;;;;;;;;;5015899;28;20067;-81
2022/02/20 02:43:29;;;;;;;7.47;3.22;;;;;;;;;;5029612;28;20071;-81
2022/02/20 02:45:56;;;;;;;3.53;2.50;;;;;;;;;;5016458;28;20065;-81
2022/02/20 02:48:22;;;;;;;3.72;2.80;;;;;;;;;;5016113;28;20520;-81
2022/02/20 02:50:49;;;;;;;4.88;2.50;;;;;;;;;;5022727;28;20045;-80
2022/02/20 02:53:15;;;;;;;4.43;2.80;;;;;;;;;;5015320;28;20033;-80
2022/02/20 02:55:44;;;;;;;5.80;2.70;;;;;;;;;;5016327;28;20041;-81
2022/02/20 02:58:10;;;;;;;5.15;3.00;;;;;;;;;;5032681;28;20033;-80
2022/02/20 03:00:35;;;;;;;7.13;3.22;;;;;;;;;;5016285;28;20041;-81
2022/02/20 03:03:02;;;;;;;6.05;3.22;;;;;;;;;;5032827;28;20406;-81
2022/02/20 03:05:28;;;;;;;5.43;2.92;;;;;;;;;;5015477;28;20045;-81
2022/02/20 03:07:54;;;;;;;7.72;3.30;;;;;;;;;;5018948;28;20041;-81
2022/02/20 03:10:20;;;;;;;5.30;2.85;;;;;;;;;;5016713;28;20040;-81
2022/02/20 03:12:45;;;;;;;6.00;3.40;;;;;;;;;;5032946;28;20067;-81
2022/02/20 03:15:11;;;;;;;3.78;3.03;;;;;;;;;;5033485;28;20037;-81
2022/02/20 03:17:37;;;;;;;3.83;2.60;;;;;;;;;;5016920;28;20154;-81
2022/02/20 03:20:03;;;;;;;4.45;3.08;;;;;;;;;;5031964;28;20037;-81
2022/02/20 03:22:29;;;;;;;7.78;3.47;;;;;;;;;;5019401;28;20091;-81
2022/02/20 03:24:55;;;;;;;6.65;4.05;;;;;;;;;;5032486;28;20064;-81
2022/02/20 03:27:20;;;;;;;7.32;3.03;;;;;;;;;;5015964;28;20044;-81
2022/02/20 03:29:46;;;;;;;5.88;3.13;;;;;;;;;;5035435;28;20033;-81
2022/02/20 03:32:12;;;;;;;5.13;2.95;;;;;;;;;;5033292;28;20094;-79
2022/02/20 03:34:37;;;;;;;4.50;2.67;;;;;;;;;;5033631;28;20063;-79
2022/02/20 03:37:03;;;;;;;9.57;3.28;;;;;;;;;;5019093;28;20045;-79
2022/02/20 03:39:29;;;;;;;8.52;3.08;;;;;;;;;;4999420;28;20489;-79
2022/02/20 03:41:55;;;;;;;7.88;3.10;;;;;;;;;;5017409;28;20064;-79
2022/02/20 03:44:20;;;;;;;3.40;2.30;;;;;;;;;;5032772;28;20095;-79
2022/02/20 03:46:46;;;;;;;6.07;2.92;;;;;;;;;;5014285;28;20132;-79
2022/02/20 03:49:12;;;;;;;4.05;2.25;;;;;;;;;;5018832;28;20063;-80
2022/02/20 03:51:37;;;;;;;2.10;1.92;;;;;;;;;;5031840;28;20103;-80
2022/02/20 03:54:03;;;;;;;3.58;2.00;;;;;;;;;;5031873;28;20122;-80
2022/02/20 03:56:29;;;;;;;4.25;2.03;;;;;;;;;;5014648;28;20099;-80
2022/02/20 03:58:54;;;;;;;4.78;2.47;;;;;;;;;;5031860;28;20045;-79
2022/02/20 04:01:20;;;;;;;4.35;1.73;;;;;;;;;;5030162;28;20045;-80
2022/02/20 04:03:46;;;;;;;2.88;2.10;;;;;;;;;;5015180;28;20049;-80
2022/02/20 04:06:11;;;;;;;4.28;2.00;;;;;;;;;;5015466;28;20354;-80
2022/02/20 04:08:37;;;;;;;4.85;2.20;;;;;;;;;;5015897;28;20061;-79
2022/02/20 04:11:03;;;;;;;7.85;3.33;;;;;;;;;;5036980;28;22696;-80
2022/02/20 04:13:28;;;;;;;4.03;3.00;;;;;;;;;;5031862;28;20107;-80
2022/02/20 04:15:54;;;;;;;2.70;2.28;;;;;;;;;;5015015;28;20041;-79
2022/02/20 04:18:20;;;;;;;2.28;2.13;;;;;;;;;;5030544;28;20194;-79
2022/02/20 04:20:47;;;;;;;5.88;2.10;;;;;;;;;;5017193;28;20371;-79
2022/02/20 04:23:13;;;;;;;5.60;2.20;;;;;;;;;;5031117;28;20068;-79
2022/02/20 04:25:39;;;;;;;4.93;2.40;;;;;;;;;;5015618;28;20037;-79
2022/02/20 04:28:04;;;;;;;5.35;2.60;;;;;;;;;;5031281;28;20064;-80
2022/02/20 04:30:31;;;;;;;2.58;2.00;;;;;;;;;;5014532;28;20124;-79
2022/02/20 04:32:57;;;;;;;3.40;2.10;;;;;;;;;;5030527;28;20060;-79
2022/02/20 04:35:23;;;;;;;2.45;2.17;;;;;;;;;;5030622;28;20345;-79
2022/02/20 04:37:49;;;;;;;5.05;2.22;;;;;;;;;;5031455;28;20120;-80
2022/02/20 04:40:15;;;;;;;2.85;2.55;;;;;;;;;;5016560;28;20096;-79
2022/02/20 04:42:41;;;;;;;2.38;2.17;;;;;;;;;;5031234;28;20044;-79
2022/02/20 04:45:07;;;;;;;3.22;2.60;;;;;;;;;;5031117;28;20064;-80
2022/02/20 04:47:33;;;;;;;4.72;2.40;;;;;;;;;;5048494;28;20418;-80
2022/02/20 04:49:58;;;;;;;3.63;2.47;;;;;;;;;;5014265;28;20122;-80
2022/02/20 04:52:24;;;;;;;4.00;2.78;;;;;;;;;;5031547;28;20071;-80
2022/02/20 04:54:50;;;;;;;3.35;2.50;;;;;;;;;;5032129;28;20056;-80
2022/02/20 04:57:15;;;;;;;3.40;2.30;;;;;;;;;;5031475;28;20076;-80
2022/02/20 04:59:41;;;;;;;4.38;2.42;;;;;;;;;;5031996;28;20121;-80
2022/02/20 05:02:07;;;;;;;6.80;2.53;;;;;;;;;;5031792;28;20089;-80
2022/02/20 05:04:33;;;;;;;3.10;2.58;;;;;;;;;;5031763;28;20033;-80
2022/02/20 05:06:58;;;;;;;2.67;1.98;;;;;;;;;;5030968;28;20458;-80
2022/02/20 05:09:24;;;;;;;4.22;2.17;;;;;;;;;;5031285;28;20053;-80
2022/02/20 05:11:50;;;;;;;4.22;2.75;;;;;;;;;;5031459;28;20112;-80
2022/02/20 05:14:15;;;;;;;2.55;2.30;;;;;;;;;;5039115;28;20067;-80
2022/02/20 05:16:41;;;;;;;5.30;2.40;;;;;;;;;;5031429;28;20509;-80
2022/02/20 05:19:07;;;;;;;5.85;2.90;;;;;;;;;;5030522;28;20029;-80
2022/02/20 05:21:33;;;;;;;3.17;2.40;;;;;;;;;;5047323;28;20063;-80
2022/02/20 05:23:59;;;;;;;5.53;2.65;;;;;;;;;;5031504;28;20068;-80
2022/02/20 05:26:24;;;;;;;4.93;2.33;;;;;;;;;;5029985;28;20091;-80
2022/02/20 05:28:50;;;;;;;3.22;2.20;;;;;;;;;;5029923;28;20045;-80
2022/02/20 05:31:16;;;;;;;3.13;2.30;;;;;;;;;;5030211;28;20037;-80
2022/02/20 05:33:42;;;;;;;3.20;2.35;;;;;;;;;;5012247;28;20064;-80
2022/02/20 05:36:09;;;;;;;2.70;2.50;;;;;;;;;;5014415;28;20053;-80
2022/02/20 05:38:35;;;;;;;3.83;2.33;;;;;;;;;;5045541;28;20037;-80
2022/02/20 05:41:00;;;;;;;4.47;2.10;;;;;;;;;;5029647;28;20075;-80
2022/02/20 05:43:26;;;;;;;3.85;2.50;;;;;;;;;;5015029;28;20106;-80
2022/02/20 05:45:53;;;;;;;3.42;2.55;;;;;;;;;;5034163;28;20103;-80
2022/02/20 05:48:19;;;;;;;4.93;2.40;;;;;;;;;;5028354;28;20514;-80
2022/02/20 05:50:45;;;;;;;4.13;2.45;;;;;;;;;;5028817;28;20090;-80
2022/02/20 05:53:11;;;;;;;3.17;2.22;;;;;;;;;;5015585;28;20044;-80
2022/02/20 05:55:37;;;;;;;2.65;2.40;;;;;;;;;;5017803;28;20037;-80
2022/02/20 05:58:03;;;;;;;3.13;2.50;;;;;;;;;;5034374;28;20041;-80
2022/02/20 06:00:29;;;;;;;4.10;2.85;;;;;;;;;;5035065;28;20112;-80
2022/02/20 06:02:55;;;;;;;3.35;2.65;;;;;;;;;;5021344;28;20107;-82
2022/02/20 06:05:21;;;;;;;3.65;2.78;;;;;;;;;;5035973;28;20045;-80
2022/02/20 06:07:47;;;;;;;3.22;2.80;;;;;;;;;;5018602;28;20056;-80
2022/02/20 06:10:13;;;;;;;4.25;3.00;;;;;;;;;;5036229;28;20061;-80
2022/02/20 06:12:39;;;;;;;3.05;2.75;;;;;;;;;;5035253;28;20490;-80
2022/02/20 06:15:06;;;;;;;3.08;2.80;;;;;;;;;;5035460;28;20117;-80
2022/02/20 06:17:32;;;;;;;3.05;2.67;;;;;;;;;;5034506;28;20111;-80
2022/02/20 06:19:58;;;;;;;3.53;3.20;;;;;;;;;;5033423;28;20138;-80
2022/02/20 06:22:24;;;;;;;3.35;3.05;;;;;;;;;;5051469;28;20389;-80
2022/02/20 06:24:50;;;;;;;4.70;3.03;;;;;;;;;;5033388;28;20037;-80
2022/02/20 06:27:15;;;;;;;5.72;3.90;;;;;;;;;;5033140;28;20047;-81
2022/02/20 06:29:41;;;;;;;5.15;3.50;;;;;;;;;;5033720;28;20102;-81
2022/02/20 06:32:07;;;;;;;4.03;3.42;;;;;;;;;;5033163;28;20522;-81
2022/02/20 06:34:33;;;;;;;4.97;3.63;;;;;;;;;;5032991;28;20813;-81
2022/02/20 06:36:59;;;;;;;4.38;3.58;;;;;;;;;;5017968;28;20068;-80
2022/02/20 06:39:25;;;;;;;3.80;3.40;;;;;;;;;;5027059;28;20067;-80
2022/02/20 06:41:50;;;;;;;3.65;3.35;;;;;;;;;;5014629;28;20151;-82
2022/02/20 06:44:16;;;;;;;4.10;3.42;;;;;;;;;;5014488;28;20041;-80
2022/02/20 06:46:43;;;;;;;4.53;3.65;;;;;;;;;;5030253;28;20691;-82
2022/02/20 06:49:08;;;;;;;4.55;3.63;;;;;;;;;;5034200;28;20041;-79
2022/02/20 06:51:35;;;;;;;4.10;3.47;;;;;;;;;;5031379;28;20074;-79
2022/02/20 06:54:01;;;;;;;3.90;3.58;;;;;;;;;;5013901;28;20092;-80
2022/02/20 06:56:27;;;;;;;3.80;3.42;;;;;;;;;;5046289;28;20132;-80
2022/02/20 06:58:53;;;;;;;4.47;4.00;;;;;;;;;;5031694;28;20044;-80
2022/02/20 07:01:18;;;;;;;5.35;3.78;;;;;;;;;;5029240;28;20090;-79
2022/02/20 07:03:44;;;;;;;5.57;3.75;;;;;;;;;;5032558;28;20075;-79
2022/02/20 07:06:10;;;;;;;3.85;3.42;;;;;;;;;;5031712;28;20056;-80
2022/02/20 07:08:36;;;;;;;4.65;4.22;;;;;;;;;;5019410;28;20586;-79
2022/02/20 07:11:02;;;;;;;3.45;3.13;;;;;;;;;;5016003;28;20053;-79
2022/02/20 07:13:27;;;;;;;3.65;3.25;;;;;;;;;;5048280;28;20039;-79
2022/02/20 07:15:53;;;;;;;3.60;3.30;;;;;;;;;;5029978;28;20318;-77
2022/02/20 07:18:19;;;;;;;3.65;3.25;;;;;;;;;;5025190;28;20124;-77
2022/02/20 07:20:45;;;;;;;3.78;3.28;;;;;;;;;;5043828;28;20029;-78
2022/02/20 07:23:12;;;;;;;3.63;2.90;;;;;;;;;;5010601;28;20510;-78
2022/02/20 07:25:38;;;;;;;4.20;3.80;;;;;;;;;;5026197;28;20040;-78
2022/02/20 07:28:03;;;;;;;3.65;3.00;;;;;;;;;;5027321;28;20460;-78
2022/02/20 07:30:29;;;;;;;4.45;3.60;;;;;;;;;;5025721;28;20037;-77
2022/02/20 07:32:56;;;;;;;3.25;2.95;;;;;;;;;;5027198;28;20033;-78
2022/02/20 07:35:23;;;;;;;3.08;2.78;;;;;;;;;;5012254;28;20286;-78
2022/02/20 07:37:48;;;;;;;5.07;3.30;;;;;;;;;;5012035;28;20231;-78
2022/02/20 07:40:16;;;;;;;4.07;3.53;;;;;;;;;;5026725;28;20341;-78
2022/02/20 07:42:41;;;;;;;3.50;3.20;;;;;;;;;;5025542;28;20068;-78
2022/02/20 07:45:08;;;;;;;4.22;2.80;;;;;;;;;;5009707;28;20107;-78
2022/02/20 07:47:48;;;;;;;4.20;3.65;;;;;;;;;;5008057;28;20037;-78
2022/02/20 07:50:14;;;;;;;3.15;2.85;;;;;;;;;;5026282;28;20374;-78
2022/02/20 07:52:39;;;;;;;3.13;2.75;;;;;;;;;;5014582;28;20040;-78
2022/02/20 07:55:06;;;;;;;3.00;2.75;;;;;;;;;;5025902;28;20077;-78
2022/02/20 07:57:31;;;;;;;3.88;3.50;;;;;;;;;;5022749;28;20045;-78
2022/02/20 07:59:57;;;;;;;2.75;2.55;;;;;;;;;;5009790;28;20032;-78
2022/02/20 08:02:24;;;;;;;2.72;2.38;;;;;;;;;;5026169;28;20536;-78
2022/02/20 08:04:50;;;;;;;2.22;2.00;;;;;;;;;;5024722;28;20516;-78
2022/02/20 08:07:15;;;;;;;2.65;2.45;;;;;;;;;;5025580;28;20040;-78
2022/02/20 08:09:41;;;;;;;2.60;2.40;;;;;;;;;;5025713;28;20037;-78
2022/02/20 08:12:07;;;;;;;2.63;2.42;;;;;;;;;;5020757;28;20110;-78
2022/02/20 08:14:33;;;;;;;4.18;2.67;;;;;;;;;;5009586;28;20033;-78
2022/02/20 08:16:58;;;;;;;2.30;2.10;;;;;;;;;;5042197;28;20651;-78
2022/02/20 08:19:24;;;;;;;2.38;2.15;;;;;;;;;;5024713;28;20094;-78
2022/02/20 08:21:50;;;;;;;2.70;2.50;;;;;;;;;;5008080;28;20112;-78
2022/02/20 08:24:16;;;;;;;2.45;2.22;;;;;;;;;;5025467;28;20106;-78
2022/02/20 08:26:42;;;;;;;2.50;2.30;;;;;;;;;;5023064;28;20579;-78
2022/02/20 08:29:07;;;;;;;3.10;2.60;;;;;;;;;;5033360;28;20456;-78
2022/02/20 08:31:33;;;;;;;2.83;2.55;;;;;;;;;;5024585;28;20042;-78
2022/02/20 08:33:59;;;;;;;2.22;2.03;;;;;;;;;;5025066;28;20557;-78
2022/02/20 08:36:25;;;;;;;2.15;2.05;;;;;;;;;;5025793;28;20033;-78
2022/02/20 08:38:50;;;;;;;3.35;3.08;;;;;;;;;;5023796;28;20395;-78
2022/02/20 08:41:17;;;;;;;2.60;2.40;;;;;;;;;;5041667;28;20040;-78
2022/02/20 08:43:42;;;;;;;2.75;2.55;;;;;;;;;;5008337;28;20039;-78
2022/02/20 08:46:08;;;;;;;3.65;2.97;;;;;;;;;;5025496;28;20406;-78
2022/02/20 08:48:36;;;;;;;2.90;2.70;;;;;;;;;;5025270;28;20032;-78
2022/02/20 08:51:03;;;;;;;3.42;3.13;;;;;;;;;;5025562;28;20583;-78
2022/02/20 08:53:29;;;;;;;3.75;3.45;;;;;;;;;;5042116;28;20533;-78
2022/02/20 08:55:54;;;;;;;4.22;3.40;;;;;;;;;;5025567;28;20095;-78
2022/02/20 08:58:20;;;;;;;3.55;3.22;;;;;;;;;;5041011;28;20450;-78
2022/02/20 09:00:46;;;;;;;5.53;3.55;;;;;;;;;;5009592;28;20048;-78
2022/02/20 09:03:11;;;;;;;3.10;2.90;;;;;;;;;;5024636;28;20041;-78
2022/02/20 09:05:37;;;;;;;3.33;3.03;;;;;;;;;;5025293;28;20069;-78
2022/02/20 09:08:03;;;;;;;3.28;2.97;;;;;;;;;;5025213;28;20063;-78
2022/02/20 09:10:29;;;;;;;3.40;2.80;;;;;;;;;;5042897;28;20506;-78
2022/02/20 09:12:54;;;;;;;3.42;2.88;;;;;;;;;;5009553;28;20061;-78
2022/02/20 09:15:20;;;;;;;3.65;3.30;;;;;;;;;;5009183;28;20033;-78
2022/02/20 09:17:46;;;;;;;3.42;3.13;;;;;;;;;;5026433;28;20074;-79
2022/02/20 09:20:12;;;;;;;2.90;2.70;;;;;;;;;;5026332;28;20037;-79
2022/02/20 09:22:42;;;;;;;5.72;4.05;;;;;;;;;;5011117;28;20071;-78
2022/02/20 09:25:09;;;;;;;3.92;3.00;;;;;;;;;;5025407;28;20052;-78
2022/02/20 09:27:35;;;;;;;3.10;2.80;;;;;;;;;;5007966;28;20199;-78
2022/02/20 09:30:01;;;;;;;3.10;2.78;;;;;;;;;;5027977;28;20060;-78
2022/02/20 09:32:27;;;;;;;3.22;2.92;;;;;;;;;;5012723;28;20144;-78
2022/02/20 09:34:53;;;;;;;3.72;3.30;;;;;;;;;;5029659;28;20119;-78
2022/02/20 09:37:18;;;;;;;3.47;2.63;;;;;;;;;;5012271;28;20090;-78
2022/02/20 09:39:44;;;;;;;2.88;2.60;;;;;;;;;;5016760;28;20037;-78
2022/02/20 09:42:10;;;;;;;3.35;2.60;;;;;;;;;;5028526;28;20087;-78
2022/02/20 09:44:36;;;;;;;3.67;2.65;;;;;;;;;;5012255;28;20041;-78
2022/02/20 09:47:05;;;;;;;3.63;3.33;;;;;;;;;;5011564;28;20037;-78
2022/02/20 09:49:31;;;;;;;4.38;3.92;;;;;;;;;;5012059;28;20094;-78
2022/02/20 09:51:57;;;;;;;4.22;3.10;;;;;;;;;;5015178;28;20115;-78
2022/02/20 09:54:23;;;;;;;3.40;3.10;;;;;;;;;;5028053;28;20493;-78
2022/02/20 09:56:49;;;;;;;3.25;2.83;;;;;;;;;;5028960;28;20041;-79
2022/02/20 09:59:14;;;;;;;3.55;2.78;;;;;;;;;;5029293;28;20047;-78
2022/02/20 10:02:05;;;;;;;3.97;3.35;;;;;;;;;;5029016;28;20534;-78
2022/02/20 10:04:51;;;;;;;3.42;3.13;;;;;;;;;;5044917;28;20072;-79
2022/02/20 10:07:30;;;;;;;5.30;4.03;;;;;;;;;;5026922;28;20037;-78
2022/02/20 10:09:57;;;;;;;4.70;3.78;;;;;;;;;;5028734;28;20485;-78
2022/02/20 10:12:26;;;;;;;4.85;3.72;;;;;;;;;;5027861;28;20044;-78
2022/02/20 10:14:52;;;;;;;4.40;3.67;;;;;;;;;;5027674;28;20041;-78
2022/02/20 10:17:21;;;;;;;4.53;4.07;;;;;;;;;;5014532;28;20041;-78
2022/02/20 10:19:53;;;;;;;4.30;3.90;;;;;;;;;;5013287;28;20047;-78
2022/02/20 10:22:35;;;;;;;4.65;4.13;;;;;;;;;;5013915;28;20410;-77
2022/02/20 10:25:03;;;;;;;4.80;4.25;;;;;;;;;;5028292;28;20270;-78
2022/02/20 10:27:28;;;;;;;5.00;4.32;;;;;;;;;;5047182;28;20499;-78
2022/02/20 10:30:18;;;;;;;7.10;4.75;;;;;;;;;;5027478;28;20045;-78
2022/02/20 10:32:44;;;;;;;5.95;4.75;;;;;;;;;;5028614;28;20056;-78
2022/02/20 10:35:12;;;;;;;4.47;4.03;;;;;;;;;;5012983;28;20102;-77
2022/02/20 10:37:39;;;;;;;5.25;4.53;;;;;;;;;;5009001;28;20340;-78
2022/02/20 10:40:25;;;;;;;6.07;4.60;;;;;;;;;;5012144;28;20037;-78
2022/02/20 10:42:53;;;;;;;4.20;3.80;;;;;;;;;;5012322;28;20589;-78
2022/02/20 10:45:33;;;;;;;4.90;4.40;;;;;;;;;;5028351;28;20045;-78
2022/02/20 10:48:00;;;;;;;4.78;4.35;;;;;;;;;;5028076;28;20041;-78
2022/02/20 10:50:27;;;;;;;4.50;4.05;;;;;;;;;;5024962;28;20033;-78
2022/02/20 10:53:14;;;;;;;4.60;3.38;;;;;;;;;;5028332;28;20253;-78
2022/02/20 10:55:41;;;;;;;9.43;7.03;;;;;;;;;;5026017;28;20072;-78
2022/02/20 10:58:20;;;;;;;4.80;4.28;;;;;;;;;;5030446;28;20098;-78
2022/02/20 11:00:53;;;;;;;8.52;4.63;;;;;;;;;;5029122;28;20055;-78
2022/02/20 11:03:21;;;;;;;5.22;4.70;;;;;;;;;;5010257;28;20068;-78
2022/02/20 11:05:47;;;;;;;6.05;3.95;;;;;;;;;;5006953;28;20053;-76
2022/02/20 11:08:14;;;;;;;5.60;4.03;;;;;;;;;;5025251;28;20411;-77
2022/02/20 11:10:41;;;;;;;4.57;4.15;;;;;;;;;;5025378;28;20124;-77
2022/02/20 11:13:09;;;;;;;4.75;4.00;;;;;;;;;;5006451;28;20124;-77
2022/02/20 11:15:35;;;;;;;5.38;4.82;;;;;;;;;;5026476;28;20065;-77
2022/02/20 11:18:04;;;;;;;6.60;4.35;;;;;;;;;;5023050;28;20048;-77
2022/02/20 11:20:31;;;;;;;6.00;4.00;;;;;;;;;;5025315;28;20115;-77
2022/02/20 11:23:04;;;;;;;4.43;4.03;;;;;;;;;;5009402;28;20156;-77
2022/02/20 11:25:31;;;;;;;8.57;4.53;;;;;;;;;;5042167;28;20044;-77
2022/02/20 11:27:59;;;;;;;6.18;3.63;;;;;;;;;;5006499;28;20045;-77
2022/02/20 11:30:25;;;;;;;5.85;3.80;;;;;;;;;;5009467;28;20127;-77
2022/02/20 11:32:52;;;;;;;5.80;3.58;;;;;;;;;;5001040;28;20052;-80
2022/02/20 11:35:19;;;;;;;3.90;2.97;;;;;;;;;;5026826;28;20036;-79
2022/02/20 11:37:53;;;;;;;5.38;2.30;;;;;;;;;;5028517;28;20043;-79
2022/02/20 11:40:20;;;;;;;8.15;3.20;;;;;;;;;;5041379;28;20033;-79
2022/02/20 11:42:59;;;;;;;2.85;2.58;;;;;;;;;;5027175;28;20029;-77
2022/02/20 11:45:28;;;;;;;4.88;3.20;;;;;;;;;;5044639;28;20051;-77
2022/02/20 11:48:11;;;;;;;5.07;2.28;;;;;;;;;;5025258;28;20044;-77
2022/02/20 11:50:43;;;;;;;7.05;2.83;;;;;;;;;;5026539;28;20399;-77
2022/02/20 11:53:11;;;;;;;3.55;2.92;;;;;;;;;;5022897;28;20498;-77
2022/02/20 11:55:41;;;;;;;4.22;2.70;;;;;;;;;;5042576;28;20051;-77
2022/02/20 11:58:13;;;;;;;5.28;2.92;;;;;;;;;;5004177;28;20113;-77
2022/02/20 12:00:58;;;;;;;3.00;1.70;;;;;;;;;;5044655;28;20049;-77
2022/02/20 12:03:30;;;;;;;4.47;2.00;;;;;;;;;;5020238;28;20065;-77
2022/02/20 12:06:08;;;;;;;3.42;1.80;;;;;;;;;;5024792;28;20041;-77
2022/02/20 12:08:36;;;;;;;2.17;1.73;;;;;;;;;;5044235;28;20069;-77
2022/02/20 12:11:16;;;;;;;3.25;2.58;;;;;;;;;;5017651;28;20041;-77
2022/02/20 12:13:48;;;;;;;6.10;2.97;;;;;;;;;;5038571;28;20036;-77
2022/02/20 12:16:25;;;;;;;4.95;3.30;;;;;;;;;;5024916;28;20044;-77
2022/02/20 12:19:16;;;;;;;5.68;3.50;;;;;;;;;;5024449;28;20045;-77
2022/02/20 12:22:01;;;;;;;5.80;3.45;;;;;;;;;;5026744;28;20144;-77
2022/02/20 12:24:36;;;;;;;6.10;4.40;;;;;;;;;;5007809;28;20045;-77
2022/02/20 12:27:04;;;;;;;6.50;4.15;;;;;;;;;;5042954;28;20047;-77
2022/02/20 12:29:39;;;;;;;4.95;3.95;;;;;;;;;;5034917;28;20036;-77
2022/02/20 12:32:13;;;;;;;5.85;3.97;;;;;;;;;;5009867;28;20599;-77
2022/02/20 12:34:43;;;;;;;6.50;4.43;;;;;;;;;;5008941;28;20056;-77
2022/02/20 12:37:11;;;;;;;6.10;5.50;;;;;;;;;;5042723;28;20037;-77
2022/02/20 12:39:38;;;;;;;6.40;4.35;;;;;;;;;;5008908;28;20040;-77
2022/02/20 12:42:04;;;;;;;5.75;3.70;;;;;;;;;;5026462;28;20064;-77
2022/02/20 12:44:33;;;;;;;5.03;3.90;;;;;;;;;;5039425;28;20060;-77
2022/02/20 12:46:59;;;;;;;5.38;4.28;;;;;;;;;;5023163;28;20052;-77
2022/02/20 12:49:25;;;;;;;9.70;5.05;;;;;;;;;;5021814;28;20037;-77
2022/02/20 12:52:04;;;;;;;9.25;6.05;;;;;;;;;;5007362;28;20045;-77
2022/02/20 12:54:30;;;;;;;7.70;4.63;;;;;;;;;;5004624;28;20083;-77
2022/02/20 12:57:07;;;;;;;7.22;5.13;;;;;;;;;;5008993;28;20049;-77
2022/02/20 12:59:33;;;;;;;6.50;4.88;;;;;;;;;;5021361;28;20041;-77
2022/02/20 13:02:04;;;;;;;8.73;4.60;;;;;;;;;;5020567;28;20055;-77
2022/02/20 13:04:30;;;;;;;7.32;5.20;;;;;;;;;;5008905;28;20136;-77
2022/02/20 13:07:00;;;;;;;9.35;5.38;;;;;;;;;;5022706;28;20083;-77
2022/02/20 13:09:41;;;;;;;9.02;5.38;;;;;;;;;;5039122;28;20429;-78
2022/02/20 13:12:18;;;;;;;12.20;5.03;;;;;;;;;;5024980;28;25795;-78
2022/02/20 13:15:10;;;;;;;9.45;6.10;;;;;;;;;;5023662;28;20037;-78
2022/02/20 13:18:09;;;;;;;10.10;5.55;;;;;;;;;;5009330;28;20025;-78
2022/02/20 13:20:38;;;;;;;13.68;6.60;;;;;;;;;;5025698;28;20136;-79
2022/02/20 13:23:34;;;;;;;10.32;5.90;;;;;;;;;;5025889;28;20284;-79
2022/02/20 13:26:14;;;;;;;11.32;6.07;;;;;;;;;;5000178;28;20128;-78
2022/02/20 13:28:44;;;;;;;9.60;5.97;;;;;;;;;;5042508;28;20040;-78
2022/02/20 13:31:14;;;;;;;13.75;6.63;;;;;;;;;;5009875;28;20087;-79
2022/02/20 13:33:51;;;;;;;14.15;7.07;;;;;;;;;;5025399;28;20041;-79
2022/02/20 13:36:18;;;;;;;11.30;6.07;;;;;;;;;;5026109;28;20044;-78
2022/02/20 13:38:46;;;;;;;13.38;6.32;;;;;;;;;;5026652;28;20041;-78
2022/02/20 13:41:22;;;;;;;11.25;5.88;;;;;;;;;;5026426;28;20460;-78
2022/02/20 13:43:48;;;;;;;;;;;;;;;;;;5009824;28;20052;-78
2022/02/20 13:46:16;;;;;;;7.03;4.50;;;;;;;;;;5029364;28;19929;-78
2022/02/20 13:48:44;;;;;;;11.20;4.50;;;;;;;;;;5025447;28;20278;-78
2022/02/20 13:51:10;;;;;;;11.00;4.97;;;;;;;;;;5008694;28;20032;-78
2022/02/20 13:54:06;;;;;;;9.35;4.10;;;;;;;;;;5024899;28;20041;-78
2022/02/20 13:56:58;;;;;;;9.68;4.57;;;;;;;;;;5023272;28;20120;-78
2022/02/20 13:59:26;;;;;;;9.15;4.25;;;;;;;;;;5024948;28;20746;-78
2022/02/20 14:02:08;;;;;;;11.15;4.20;;;;;;;;;;5025022;28;20047;-78
2022/02/20 14:04:47;;;;;;;8.85;5.47;;;;;;;;;;5026460;28;20037;-78
2022/02/20 14:07:25;;;;;;;9.88;4.78;;;;;;;;;;5010723;28;20037;-78
2022/02/20 14:09:56;;;;;;;6.22;3.70;;;;;;;;;;5005934;28;20037;-78
2022/02/20 14:12:36;;;;;;;7.22;2.90;;;;;;;;;;5022839;28;20036;-78
2022/02/20 14:15:16;;;;;;;5.68;3.13;;;;;;;;;;5042074;28;20053;-78
2022/02/20 14:17:59;;;;;;;8.50;3.50;;;;;;;;;;5028425;28;20152;-78
2022/02/20 14:20:36;;;;;;;4.10;3.00;;;;;;;;;;5010149;28;20087;-78
2022/02/20 14:23:20;;;;;;;8.48;3.38;;;;;;;;;;5029319;28;20076;-78
2022/02/20 14:26:03;;;;;;;4.85;2.97;;;;;;;;;;5025811;28;20115;-78
2022/02/20 14:28:30;;;;;;;6.95;3.30;;;;;;;;;;5027339;28;20123;-77
2022/02/20 14:31:06;;;;;;;5.60;3.00;;;;;;;;;;5021075;28;20048;-78
2022/02/20 14:33:35;;;;;;;6.03;3.08;;;;;;;;;;5023735;28;20036;-78
2022/02/20 14:36:03;;;;;;;4.38;2.45;;;;;;;;;;5044073;28;20036;-78
2022/02/20 14:38:41;;;;;;;8.02;3.15;;;;;;;;;;5011881;28;20037;-78
2022/02/20 14:41:11;;;;;;;10.90;3.20;;;;;;;;;;5025948;28;20047;-78
2022/02/20 14:43:38;;;;;;;7.03;2.72;;;;;;;;;;5045102;28;20209;-78
2022/02/20 14:46:03;;;;;;;4.00;2.25;;;;;;;;;;5011674;28;20043;-78
2022/02/20 14:48:29;;;;;;;4.25;2.22;;;;;;;;;;5026659;28;20167;-78